Lake Success, New York
Current Conditions -  °F | °C
As of 4:51 AM on Friday 31 Oct 2014 (Local Time) from KJFK Reporting Station
Scattered Clouds Scattered Clouds  
Wind Chill: 42°   Ceiling: Unl
Heat Index: 46°   Visibility: 10mi
Dew Point: 35°   Wind: 8mph
Humidity: 66%   Direction: 10°N
Pressure: 30.01"   Gusts: NA
Location:  40.7459°N, 73.6798°W
Report Text: KJFK 310851Z 01007KT 10SM SCT050 08/02 A3001 RMK AO2 SLP161 T00780017 58006
Loading
Personal Weather Stations






























Interactive Weather Map
Tropical Storm Tracking
New forecast layout! Learn more

10-Day Weather Forecast

Advertisements
Track Severe Weather on mobile